createdAt,value
2023-05-14T00:02:26.789Z,19.79
2023-05-14T00:04:54.619Z,19.77
2023-05-14T00:07:22.426Z,19.71
2023-05-14T00:09:50.228Z,19.73
2023-05-14T00:12:18.039Z,19.70
2023-05-14T00:14:45.816Z,19.64
2023-05-14T00:17:13.560Z,19.55
2023-05-14T00:19:42.022Z,19.46
2023-05-14T00:22:09.988Z,19.32
2023-05-14T00:24:38.184Z,19.32
2023-05-14T00:27:07.275Z,19.31
2023-05-14T00:29:35.033Z,19.31
2023-05-14T00:32:04.220Z,19.36
2023-05-14T00:34:32.190Z,19.34
2023-05-14T00:37:00.098Z,19.34
2023-05-14T00:39:28.026Z,19.31
2023-05-14T00:41:55.866Z,19.37
2023-05-14T00:44:23.773Z,19.38
2023-05-14T00:46:52.538Z,19.39
2023-05-14T00:49:21.148Z,19.38
2023-05-14T00:51:49.005Z,19.39
2023-05-14T00:54:17.460Z,19.39
2023-05-14T00:56:46.890Z,19.38
2023-05-14T00:59:14.810Z,19.36
2023-05-14T01:01:43.163Z,19.37
2023-05-14T01:04:11.819Z,19.34
2023-05-14T01:06:59.092Z,19.38
2023-05-14T01:09:50.508Z,19.30
2023-05-14T01:12:37.850Z,19.29
2023-05-14T01:15:19.580Z,19.26
2023-05-14T01:17:53.740Z,19.05
2023-05-14T01:20:23.321Z,19.13
2023-05-14T01:22:51.260Z,19.14
2023-05-14T01:25:19.203Z,19.13
2023-05-14T01:28:21.064Z,19.15
2023-05-14T01:31:04.118Z,19.10
2023-05-14T01:33:35.374Z,19.05
2023-05-14T01:36:03.714Z,19.02
2023-05-14T01:38:34.256Z,18.99
2023-05-14T01:41:03.289Z,18.98
2023-05-14T01:43:31.833Z,18.96
2023-05-14T01:45:59.675Z,18.96
2023-05-14T01:48:29.912Z,18.94
2023-05-14T01:50:57.887Z,18.95
2023-05-14T01:53:26.149Z,18.93
2023-05-14T01:55:53.937Z,18.88
2023-05-14T01:58:21.817Z,18.88
2023-05-14T02:00:49.590Z,18.84
2023-05-14T02:03:17.327Z,18.88
2023-05-14T02:05:45.483Z,18.88
2023-05-14T02:08:13.209Z,18.90
2023-05-14T02:10:41.173Z,18.92
2023-05-14T02:13:09.737Z,18.92
2023-05-14T02:15:38.347Z,18.91
2023-05-14T02:18:06.373Z,18.95
2023-05-14T02:20:34.348Z,18.96
2023-05-14T02:23:02.198Z,18.89
2023-05-14T02:25:30.125Z,18.94
2023-05-14T02:27:57.972Z,18.93
2023-05-14T02:30:26.018Z,18.94
2023-05-14T02:32:54.231Z,18.95
2023-05-14T02:35:22.860Z,18.95
2023-05-14T02:37:50.677Z,18.93
2023-05-14T02:40:18.549Z,18.91
2023-05-14T02:42:46.372Z,18.88
2023-05-14T02:45:14.215Z,18.87
2023-05-14T02:47:42.332Z,18.83
2023-05-14T02:50:11.231Z,18.76
2023-05-14T02:52:39.097Z,18.71
2023-05-14T02:55:07.441Z,18.68
2023-05-14T02:57:35.252Z,18.65
2023-05-14T03:00:03.361Z,18.64
2023-05-14T03:02:31.965Z,18.61
2023-05-14T03:05:00.376Z,18.55
2023-05-14T03:07:28.147Z,18.51
2023-05-14T03:09:56.417Z,18.55
2023-05-14T03:12:24.181Z,18.51
2023-05-14T03:14:51.960Z,18.46
2023-05-14T03:17:19.694Z,18.40
2023-05-14T03:19:47.548Z,18.31
2023-05-14T03:22:15.762Z,18.31
2023-05-14T03:24:43.526Z,18.26
2023-05-14T03:27:11.564Z,18.23
2023-05-14T03:29:39.303Z,18.20
2023-05-14T03:32:07.501Z,18.16
2023-05-14T03:34:35.390Z,18.11
2023-05-14T03:37:03.387Z,18.02
2023-05-14T03:39:31.423Z,17.93
2023-05-14T03:41:59.452Z,17.88
2023-05-14T03:44:27.646Z,17.80
2023-05-14T03:46:55.867Z,17.73
2023-05-14T03:49:23.749Z,17.66
2023-05-14T03:51:51.740Z,17.64
2023-05-14T03:54:19.515Z,17.65
2023-05-14T03:56:47.610Z,17.66
2023-05-14T03:59:15.482Z,17.65
2023-05-14T04:01:44.282Z,17.68
2023-05-14T04:04:12.224Z,17.68
2023-05-14T04:06:40.342Z,17.68
2023-05-14T04:09:08.148Z,17.67
2023-05-14T04:11:36.205Z,17.67
2023-05-14T04:14:04.281Z,17.66
2023-05-14T04:16:32.684Z,17.72
2023-05-14T04:19:04.720Z,17.72
2023-05-14T04:21:32.661Z,17.73
2023-05-14T04:24:00.510Z,17.73
2023-05-14T04:26:28.508Z,17.72
2023-05-14T04:28:56.338Z,17.72
2023-05-14T04:31:24.284Z,17.71
2023-05-14T04:33:52.059Z,17.71
2023-05-14T04:36:19.888Z,17.74
2023-05-14T04:38:47.724Z,17.75
2023-05-14T04:41:15.502Z,17.70
2023-05-14T04:43:43.240Z,17.59
2023-05-14T04:46:11.564Z,17.53
2023-05-14T04:48:39.650Z,17.46
2023-05-14T04:51:07.449Z,17.40
2023-05-14T04:53:35.216Z,17.36
2023-05-14T04:56:03.208Z,17.34
2023-05-14T04:58:34.585Z,17.32
2023-05-14T05:01:05.862Z,17.30
2023-05-14T05:03:33.787Z,17.24
2023-05-14T05:06:01.949Z,17.17
2023-05-14T05:08:29.653Z,17.17
2023-05-14T05:10:57.403Z,17.17
2023-05-14T05:13:25.185Z,17.14
2023-05-14T05:15:53.022Z,17.15
2023-05-14T05:18:20.794Z,17.19
2023-05-14T05:20:48.637Z,17.23
2023-05-14T05:23:16.443Z,17.30
2023-05-14T05:25:44.525Z,17.38
2023-05-14T05:28:12.392Z,17.45
2023-05-14T05:30:40.518Z,17.59
2023-05-14T05:33:08.522Z,17.70
2023-05-14T05:35:36.322Z,17.83
2023-05-14T05:38:07.285Z,17.94
2023-05-14T05:40:36.380Z,18.06
2023-05-14T05:43:04.076Z,18.15
2023-05-14T05:45:31.887Z,18.25
2023-05-14T05:47:59.786Z,18.33
2023-05-14T05:50:27.627Z,18.40
2023-05-14T05:52:55.367Z,18.46
2023-05-14T05:55:23.185Z,18.53
2023-05-14T05:57:51.354Z,18.62
2023-05-14T06:00:22.237Z,18.66
2023-05-14T06:02:50.525Z,18.76
2023-05-14T06:05:19.372Z,18.85
2023-05-14T06:07:47.341Z,18.93
2023-05-14T06:10:15.278Z,19.00
2023-05-14T06:12:43.011Z,19.10
2023-05-14T06:15:12.205Z,19.16
2023-05-14T06:17:40.164Z,19.21
2023-05-14T06:20:09.028Z,19.31
2023-05-14T06:22:36.806Z,19.37
2023-05-14T06:25:05.790Z,19.47
2023-05-14T06:27:33.834Z,19.63
2023-05-14T06:30:01.544Z,19.73
2023-05-14T06:32:29.297Z,19.81
2023-05-14T06:34:57.218Z,19.97
2023-05-14T06:37:25.113Z,20.08
2023-05-14T06:39:52.931Z,20.20
2023-05-14T06:42:20.665Z,20.31
2023-05-14T06:44:48.805Z,20.38
2023-05-14T06:47:16.752Z,20.48
2023-05-14T06:49:44.818Z,20.57
2023-05-14T06:52:12.905Z,20.63
2023-05-14T06:54:40.790Z,20.67
2023-05-14T06:57:08.619Z,20.73
2023-05-14T06:59:36.456Z,20.81
2023-05-14T07:02:06.976Z,20.91
2023-05-14T07:04:36.542Z,21.03
2023-05-14T07:07:05.700Z,21.16
2023-05-14T07:09:35.517Z,21.17
2023-05-14T07:12:03.628Z,21.27
2023-05-14T07:14:31.319Z,21.34
2023-05-14T07:16:59.106Z,21.42
2023-05-14T07:19:28.730Z,21.51
2023-05-14T07:21:57.953Z,21.54
2023-05-14T07:24:25.718Z,21.57
2023-05-14T07:26:54.542Z,21.63
2023-05-14T07:29:22.482Z,21.71
2023-05-14T07:31:52.483Z,21.77
2023-05-14T07:34:20.362Z,21.84
2023-05-14T07:36:49.299Z,21.90
2023-05-14T07:39:17.184Z,21.93
2023-05-14T07:41:44.892Z,22.00
2023-05-14T07:44:14.741Z,22.02
2023-05-14T07:46:44.429Z,21.81
2023-05-14T07:49:12.110Z,21.90
2023-05-14T07:51:40.104Z,21.94
2023-05-14T07:54:08.389Z,21.93
2023-05-14T07:56:36.270Z,21.95
2023-05-14T07:59:04.118Z,21.97
2023-05-14T08:01:31.989Z,22.01
2023-05-14T08:04:00.120Z,22.00
2023-05-14T08:06:29.591Z,22.08
2023-05-14T08:08:57.336Z,22.12
2023-05-14T08:11:26.102Z,22.16
2023-05-14T08:13:53.864Z,22.20
2023-05-14T08:16:21.932Z,22.24
2023-05-14T08:18:49.892Z,22.31
2023-05-14T08:21:17.910Z,22.43
2023-05-14T08:23:45.707Z,22.50
2023-05-14T08:26:13.512Z,22.53
2023-05-14T08:28:41.242Z,22.59
2023-05-14T08:31:09.103Z,22.69
2023-05-14T08:33:36.857Z,22.73
2023-05-14T08:36:05.058Z,22.87
2023-05-14T08:38:33.162Z,22.96
2023-05-14T08:41:01.249Z,23.06
2023-05-14T08:44:04.081Z,23.16
2023-05-14T08:46:32.437Z,23.14
2023-05-14T08:49:42.760Z,23.17
2023-05-14T08:52:11.400Z,23.13
2023-05-14T08:54:40.653Z,23.20
2023-05-14T08:57:12.578Z,23.32
2023-05-14T08:59:41.179Z,23.38
2023-05-14T09:02:12.780Z,23.43
2023-05-14T09:04:41.071Z,23.37
2023-05-14T09:07:09.096Z,23.42
2023-05-14T09:09:37.886Z,23.53
2023-05-14T09:12:07.275Z,23.54
2023-05-14T09:14:34.973Z,23.55
2023-05-14T09:17:03.848Z,23.57
2023-05-14T09:19:33.543Z,23.67
2023-05-14T09:22:01.338Z,23.74
2023-05-14T09:24:29.509Z,23.90
2023-05-14T09:26:58.504Z,24.03
2023-05-14T09:29:30.252Z,24.17
2023-05-14T09:32:02.208Z,24.23
2023-05-14T09:34:32.426Z,24.24
2023-05-14T09:37:05.838Z,24.29
2023-05-14T09:39:38.860Z,24.30
2023-05-14T09:42:07.038Z,24.33
2023-05-14T09:44:36.353Z,24.39
2023-05-14T09:47:04.589Z,24.41
2023-05-14T09:49:32.292Z,24.48
2023-05-14T09:52:04.790Z,24.57
2023-05-14T09:54:34.574Z,24.63
2023-05-14T09:57:02.437Z,24.71
2023-05-14T09:59:30.141Z,24.77
2023-05-14T10:01:58.627Z,24.80
2023-05-14T10:04:26.521Z,24.83
2023-05-14T10:06:56.110Z,24.86
2023-05-14T10:09:27.957Z,24.92
2023-05-14T10:12:01.243Z,24.89
2023-05-14T10:14:43.137Z,24.92
2023-05-14T10:17:18.609Z,24.95
2023-05-14T10:19:56.238Z,25.00
2023-05-14T10:22:26.941Z,24.94
2023-05-14T10:24:55.708Z,24.98
2023-05-14T10:27:23.866Z,24.95
2023-05-14T10:29:57.249Z,24.97
2023-05-14T10:32:26.515Z,24.98
2023-05-14T10:34:54.547Z,24.99
2023-05-14T10:37:27.750Z,25.00
2023-05-14T10:40:08.212Z,25.03
2023-05-14T10:42:43.333Z,24.98
2023-05-14T10:45:14.238Z,25.02
2023-05-14T10:47:48.935Z,25.06
2023-05-14T10:50:17.448Z,25.02
2023-05-14T10:52:46.649Z,25.03
2023-05-14T10:55:17.030Z,25.09
2023-05-14T10:57:46.606Z,25.09
2023-05-14T11:00:16.173Z,25.16
2023-05-14T11:02:45.217Z,25.15
2023-05-14T11:05:17.901Z,25.23
2023-05-14T11:07:48.868Z,25.25
2023-05-14T11:10:25.965Z,25.31
2023-05-14T11:12:54.021Z,25.31
2023-05-14T11:15:23.900Z,25.29
2023-05-14T11:17:53.617Z,25.35
2023-05-14T11:20:22.113Z,25.37
2023-05-14T11:22:52.006Z,25.38
2023-05-14T11:25:20.508Z,25.39
2023-05-14T11:27:49.911Z,25.36
2023-05-14T11:30:23.040Z,25.41
2023-05-14T11:32:54.320Z,25.43
2023-05-14T11:35:22.780Z,25.42
2023-05-14T11:37:54.700Z,25.46
2023-05-14T11:40:22.681Z,25.48
2023-05-14T11:42:52.959Z,25.52
2023-05-14T11:45:29.834Z,25.56
2023-05-14T11:47:57.726Z,25.55
2023-05-14T11:50:26.369Z,25.55
2023-05-14T11:52:57.519Z,25.58
2023-05-14T11:55:27.156Z,25.56
2023-05-14T11:57:54.914Z,25.53
2023-05-14T12:00:24.567Z,25.56
2023-05-14T12:02:52.872Z,25.54
2023-05-14T12:05:21.805Z,25.52
2023-05-14T12:07:49.548Z,25.54
2023-05-14T12:10:17.415Z,25.53
2023-05-14T12:12:48.810Z,25.52
2023-05-14T12:15:17.264Z,25.48
2023-05-14T12:17:51.983Z,25.40
2023-05-14T12:20:20.257Z,25.31
2023-05-14T12:22:47.986Z,25.30
2023-05-14T12:25:15.982Z,25.24
2023-05-14T12:27:45.770Z,25.30
2023-05-14T12:32:45.909Z,25.18
2023-05-14T12:35:13.633Z,25.25
2023-05-14T12:37:42.622Z,25.28
2023-05-14T12:40:12.634Z,25.29
2023-05-14T12:42:40.398Z,25.30
2023-05-14T12:45:09.931Z,25.37
2023-05-14T12:47:39.279Z,25.39
2023-05-14T12:50:07.802Z,25.47
2023-05-14T12:52:39.198Z,25.49
2023-05-14T12:55:09.509Z,25.51
2023-05-14T12:57:39.484Z,25.44
2023-05-14T13:00:21.228Z,25.38
2023-05-14T13:02:48.996Z,25.31
2023-05-14T13:05:16.899Z,25.34
2023-05-14T13:07:44.686Z,25.32
2023-05-14T13:10:12.665Z,25.29
2023-05-14T13:12:40.756Z,25.24
2023-05-14T13:15:09.410Z,25.24
2023-05-14T13:17:37.207Z,25.18
2023-05-14T13:20:08.287Z,25.23
2023-05-14T13:22:36.166Z,25.29
2023-05-14T13:25:04.884Z,25.31
2023-05-14T13:27:33.774Z,25.33
2023-05-14T13:30:01.536Z,25.38
2023-05-14T13:32:29.297Z,25.38
2023-05-14T13:34:57.022Z,25.37
2023-05-14T13:37:25.800Z,25.39
2023-05-14T13:39:53.631Z,25.37
2023-05-14T13:42:21.367Z,25.45
2023-05-14T13:44:49.636Z,25.51
2023-05-14T13:47:17.494Z,25.54
2023-05-14T13:49:45.375Z,25.51
2023-05-14T13:52:13.149Z,25.52
2023-05-14T13:54:40.920Z,25.49
2023-05-14T13:57:08.669Z,25.43
2023-05-14T13:59:36.920Z,25.42
2023-05-14T14:02:05.851Z,25.36
2023-05-14T14:04:33.756Z,25.31
2023-05-14T14:07:01.479Z,25.26
2023-05-14T14:09:29.377Z,25.28
2023-05-14T14:11:57.439Z,25.24
2023-05-14T14:14:25.254Z,25.25
2023-05-14T14:16:53.977Z,25.24
2023-05-14T14:19:21.761Z,25.21
2023-05-14T14:24:22.256Z,25.28
2023-05-14T14:26:49.933Z,25.32
2023-05-14T14:29:17.688Z,25.38
2023-05-14T14:31:45.469Z,25.44
2023-05-14T14:34:13.239Z,25.53
2023-05-14T14:36:40.912Z,25.55
2023-05-14T14:39:08.646Z,25.54
2023-05-14T14:41:36.536Z,25.47
2023-05-14T14:44:04.436Z,25.47
2023-05-14T14:46:33.459Z,25.45
2023-05-14T14:49:01.309Z,25.42
2023-05-14T14:51:30.123Z,25.46
2023-05-14T14:53:57.915Z,25.44
2023-05-14T14:56:27.512Z,25.44
2023-05-14T14:58:59.155Z,25.42
2023-05-14T15:01:26.970Z,25.39
2023-05-14T15:03:55.019Z,25.32
2023-05-14T15:06:22.780Z,25.36
2023-05-14T15:08:50.660Z,25.30
2023-05-14T15:11:18.704Z,25.24
2023-05-14T15:13:46.877Z,25.20
2023-05-14T15:16:15.560Z,25.15
2023-05-14T15:18:43.347Z,25.15
2023-05-14T15:21:11.252Z,25.12
2023-05-14T15:23:39.035Z,25.18
2023-05-14T15:26:06.770Z,25.21
2023-05-14T15:28:34.566Z,25.25
2023-05-14T15:31:02.613Z,25.24
2023-05-14T15:33:30.591Z,25.30
2023-05-14T15:35:58.471Z,25.31
2023-05-14T15:38:26.383Z,25.35
2023-05-14T15:40:54.041Z,25.34
2023-05-14T15:43:21.886Z,25.34
2023-05-14T15:45:50.427Z,25.30
2023-05-14T15:48:18.183Z,25.30
2023-05-14T15:50:49.753Z,25.31
2023-05-14T15:53:17.938Z,25.26
2023-05-14T15:55:47.776Z,25.21
2023-05-14T15:58:15.538Z,25.15
2023-05-14T16:00:43.261Z,25.12
2023-05-14T16:03:12.337Z,25.08
2023-05-14T16:05:40.247Z,25.00
2023-05-14T16:08:08.125Z,24.92
2023-05-14T16:10:35.899Z,24.89
2023-05-14T16:13:03.737Z,24.87
2023-05-14T16:15:31.506Z,24.82
2023-05-14T16:18:01.550Z,24.79
2023-05-14T16:20:29.245Z,24.75
2023-05-14T16:22:56.948Z,24.71
2023-05-14T16:25:25.969Z,24.69
2023-05-14T16:27:54.328Z,24.68
2023-05-14T16:30:22.259Z,24.67
2023-05-14T16:32:50.280Z,24.66
2023-05-14T16:35:18.122Z,24.60
2023-05-14T16:37:45.936Z,24.64
2023-05-14T16:40:16.039Z,24.63
2023-05-14T16:42:47.777Z,24.63
2023-05-14T16:45:16.960Z,24.61
2023-05-14T16:47:47.447Z,24.62
2023-05-14T16:50:15.387Z,24.61
2023-05-14T16:52:43.164Z,24.56
2023-05-14T16:55:11.026Z,24.60
2023-05-14T16:57:38.883Z,24.59
2023-05-14T17:00:07.728Z,24.60
2023-05-14T17:02:35.422Z,24.62
2023-05-14T17:05:04.054Z,24.67
2023-05-14T17:07:31.989Z,24.68
2023-05-14T17:10:00.673Z,24.75
2023-05-14T17:12:28.445Z,24.80
2023-05-14T17:14:56.157Z,24.83
2023-05-14T17:17:24.883Z,24.91
2023-05-14T17:19:52.591Z,24.98
2023-05-14T17:22:20.306Z,25.08
2023-05-14T17:24:48.570Z,25.14
2023-05-14T17:27:16.834Z,25.19
2023-05-14T17:29:44.788Z,25.24
2023-05-14T17:32:13.046Z,25.28
2023-05-14T17:34:41.148Z,25.35
2023-05-14T17:37:09.280Z,25.34
2023-05-14T17:39:37.100Z,25.40
2023-05-14T17:42:06.359Z,25.42
2023-05-14T17:44:34.194Z,25.40
2023-05-14T17:47:03.093Z,25.37
2023-05-14T17:49:31.202Z,25.37
2023-05-14T17:52:01.422Z,25.37
2023-05-14T17:54:31.265Z,25.37
2023-05-14T17:56:59.031Z,25.34
2023-05-14T17:59:26.909Z,25.37
2023-05-14T18:01:54.630Z,25.37
2023-05-14T18:04:22.320Z,25.35
2023-05-14T18:06:50.357Z,25.34
2023-05-14T18:09:18.078Z,25.29
2023-05-14T18:11:45.910Z,25.19
2023-05-14T18:14:13.657Z,25.10
2023-05-14T18:16:41.592Z,25.03
2023-05-14T18:19:09.449Z,24.92
2023-05-14T18:21:37.245Z,24.89
2023-05-14T18:24:09.804Z,24.82
2023-05-14T18:26:37.566Z,24.75
2023-05-14T18:29:05.398Z,24.65
2023-05-14T18:31:35.045Z,24.59
2023-05-14T18:34:03.113Z,24.53
2023-05-14T18:36:30.952Z,24.45
2023-05-14T18:39:02.554Z,24.38
2023-05-14T18:41:30.342Z,24.32
2023-05-14T18:43:58.075Z,24.23
2023-05-14T18:46:25.941Z,24.13
2023-05-14T18:48:54.622Z,24.07
2023-05-14T18:51:22.434Z,23.98
2023-05-14T18:53:50.228Z,23.93
2023-05-14T18:56:17.988Z,23.79
2023-05-14T18:58:45.663Z,23.66
2023-05-14T19:01:15.121Z,23.55
2023-05-14T19:03:43.006Z,23.44
2023-05-14T19:06:10.950Z,23.36
2023-05-14T19:08:38.745Z,23.30
2023-05-14T19:11:06.504Z,23.19
2023-05-14T19:13:34.244Z,23.08
2023-05-14T19:16:02.252Z,22.96
2023-05-14T19:18:32.164Z,22.87
2023-05-14T19:20:59.987Z,22.81
2023-05-14T19:23:27.752Z,22.74
2023-05-14T19:25:55.868Z,22.67
2023-05-14T19:28:23.611Z,22.63
2023-05-14T19:30:52.278Z,22.58
2023-05-14T19:33:20.117Z,22.50
2023-05-14T19:35:49.052Z,22.45
2023-05-14T19:38:17.206Z,22.41
2023-05-14T19:40:45.209Z,22.35
2023-05-14T19:43:13.091Z,22.30
2023-05-14T19:45:42.633Z,22.30
2023-05-14T19:48:12.429Z,22.24
2023-05-14T19:50:41.466Z,22.12
2023-05-14T19:53:11.317Z,22.02
2023-05-14T19:55:39.145Z,21.95
2023-05-14T19:58:08.656Z,21.87
2023-05-14T20:00:37.079Z,21.83
2023-05-14T20:03:05.852Z,21.74
2023-05-14T20:05:37.027Z,21.69
2023-05-14T20:08:08.037Z,21.62
2023-05-14T20:10:35.901Z,21.54
2023-05-14T20:13:04.125Z,21.47
2023-05-14T20:15:31.938Z,21.42
2023-05-14T20:18:01.014Z,21.40
2023-05-14T20:20:33.034Z,21.36
2023-05-14T20:23:01.436Z,21.35
2023-05-14T20:25:29.525Z,21.38
2023-05-14T20:27:57.466Z,21.37
2023-05-14T20:30:25.435Z,21.36
2023-05-14T20:32:53.351Z,21.34
2023-05-14T20:35:21.117Z,21.33
2023-05-14T20:37:49.498Z,21.35
2023-05-14T20:40:17.443Z,21.33
2023-05-14T20:42:45.932Z,21.34
2023-05-14T20:45:13.689Z,21.30
2023-05-14T20:47:41.451Z,21.26
2023-05-14T20:50:09.587Z,21.26
2023-05-14T20:52:37.284Z,21.25
2023-05-14T20:55:07.479Z,21.24
2023-05-14T20:57:35.550Z,21.24
2023-05-14T21:00:08.103Z,21.25
2023-05-14T21:02:36.375Z,21.23
2023-05-14T21:05:04.758Z,21.22
2023-05-14T21:07:32.551Z,21.20
2023-05-14T21:10:01.050Z,21.15
2023-05-14T21:12:28.747Z,21.19
2023-05-14T21:14:56.440Z,21.17
2023-05-14T21:17:24.211Z,21.16
2023-05-14T21:19:51.949Z,21.14
2023-05-14T21:22:19.686Z,21.11
2023-05-14T21:24:47.468Z,21.12
2023-05-14T21:27:15.305Z,21.15
2023-05-14T21:29:44.843Z,21.15
2023-05-14T21:32:12.756Z,21.09
2023-05-14T21:34:40.543Z,21.13
2023-05-14T21:37:08.353Z,21.13
2023-05-14T21:39:36.042Z,21.07
2023-05-14T21:42:04.126Z,20.97
2023-05-14T21:44:31.794Z,20.96
2023-05-14T21:46:59.707Z,20.92
2023-05-14T21:49:27.385Z,20.84
2023-05-14T21:51:55.193Z,20.83
2023-05-14T21:54:22.899Z,20.78
2023-05-14T21:56:50.951Z,20.73
2023-05-14T21:59:18.772Z,20.68
2023-05-14T22:02:05.333Z,20.64
2023-05-14T22:04:35.278Z,20.54
2023-05-14T22:07:03.599Z,20.52
2023-05-14T22:09:31.464Z,20.48
2023-05-14T22:11:59.702Z,20.41
2023-05-14T22:14:27.522Z,20.35
2023-05-14T22:16:55.542Z,20.31
2023-05-14T22:19:23.447Z,20.25
2023-05-14T22:21:51.204Z,20.19
2023-05-14T22:24:18.962Z,20.16
2023-05-14T22:26:46.717Z,20.10
2023-05-14T22:29:14.508Z,20.05
2023-05-14T22:31:42.309Z,20.02
2023-05-14T22:34:10.475Z,19.99
2023-05-14T22:36:38.222Z,19.95
2023-05-14T22:39:06.104Z,19.86
2023-05-14T22:41:33.889Z,19.82
2023-05-14T22:44:01.715Z,19.85
2023-05-14T22:46:29.896Z,19.81
2023-05-14T22:48:57.777Z,19.75
2023-05-14T22:51:25.472Z,19.76
2023-05-14T22:53:54.041Z,19.75
2023-05-14T22:56:22.143Z,19.75
2023-05-14T22:58:49.840Z,19.72
2023-05-14T23:01:17.568Z,19.75
2023-05-14T23:03:45.290Z,19.71
2023-05-14T23:06:14.732Z,19.74
2023-05-14T23:08:42.499Z,19.73
2023-05-14T23:11:10.300Z,19.74
2023-05-14T23:13:38.331Z,19.78
2023-05-14T23:16:06.192Z,19.78
2023-05-14T23:18:34.157Z,19.79
2023-05-14T23:21:02.091Z,19.79
2023-05-14T23:23:29.790Z,19.75
2023-05-14T23:25:57.647Z,19.73
2023-05-14T23:28:25.327Z,19.69
2023-05-14T23:30:53.044Z,19.67
2023-05-14T23:33:20.756Z,19.63
2023-05-14T23:35:49.024Z,19.61
2023-05-14T23:38:17.126Z,19.61
2023-05-14T23:40:44.867Z,19.55
2023-05-14T23:43:12.669Z,19.50
2023-05-14T23:45:40.679Z,19.46
2023-05-14T23:48:08.572Z,19.44
2023-05-14T23:50:36.975Z,19.42
2023-05-14T23:53:04.968Z,19.34
2023-05-14T23:55:32.804Z,19.27
2023-05-14T23:58:00.643Z,19.28
